Time;durP1;ratioP1;P1;durP2;ratioP2;P2;SDS_P1;SDS_P2;PMS_P1;PMS_P2;Temp;Humidity;BMP_temperature;BMP_pressure;BME280_temperature;BME280_humidity;BME280_pressure;Samples;Min_cycle;Max_cycle;Signal;HPM_P1;HPM_P2
2023/12/29 00:01:20;;;;;;;0.30;0.20;;;;;;;10.26;98.43;100153.06;5045737;28;20538;-56
2023/12/29 00:03:46;;;;;;;0.30;0.20;;;;;;;10.17;98.37;100151.53;5040265;28;20479;-55
2023/12/29 00:06:13;;;;;;;0.30;0.20;;;;;;;10.16;98.47;100149.81;5052586;28;20492;-55
2023/12/29 00:08:39;;;;;;;0.30;0.20;;;;;;;10.16;98.30;100149.81;5050171;28;20489;-55
2023/12/29 00:11:06;;;;;;;0.30;0.20;;;;;;;10.19;98.37;100147.03;5041353;28;20801;-56
2023/12/29 00:13:32;;;;;;;0.30;0.20;;;;;;;10.09;97.94;100142.91;5038749;28;20525;-56
2023/12/29 00:15:59;;;;;;;0.30;0.20;;;;;;;10.14;97.83;100140.09;5052445;28;20451;-56
2023/12/29 00:18:25;;;;;;;0.30;0.20;;;;;;;10.07;97.81;100137.66;5052568;28;20521;-56
2023/12/29 00:20:52;;;;;;;0.30;0.20;;;;;;;10.10;97.92;100134.91;5052394;28;20453;-56
2023/12/29 00:23:33;;;;;;;0.30;0.20;;;;;;;10.09;97.62;100129.63;5033175;28;20463;-56
2023/12/29 00:25:59;;;;;;;0.30;0.20;;;;;;;10.20;97.75;100134.63;5032206;28;20448;-56
2023/12/29 00:28:26;;;;;;;0.30;0.20;;;;;;;10.15;97.15;100128.59;5044625;28;20487;-53
2023/12/29 00:30:52;;;;;;;0.30;0.20;;;;;;;10.06;97.27;100119.97;5032183;28;20551;-53
2023/12/29 00:33:28;;;;;;;0.30;0.20;;;;;;;10.08;97.43;100114.63;5051222;28;20524;-53
2023/12/29 00:35:55;;;;;;;0.30;0.20;;;;;;;10.05;97.67;100123.53;5052103;28;20471;-53
2023/12/29 00:38:21;;;;;;;0.30;0.20;;;;;;;10.02;98.01;100109.50;5038893;28;20910;-53
2023/12/29 00:40:48;;;;;;;0.30;0.20;;;;;;;9.99;98.53;100114.88;5051768;28;20872;-53
2023/12/29 00:43:15;;;;;;;0.30;0.20;;;;;;;10.02;98.36;100112.16;5051825;28;20474;-53
2023/12/29 00:45:41;;;;;;;0.30;0.20;;;;;;;10.04;98.05;100097.91;5051728;28;20454;-53
2023/12/29 00:48:09;;;;;;;0.30;0.20;;;;;;;9.98;97.97;100105.16;5038818;28;20451;-53
2023/12/29 00:50:35;;;;;;;0.30;0.20;;;;;;;9.93;98.14;100104.44;5051716;28;20458;-53
2023/12/29 00:53:02;;;;;;;0.30;0.20;;;;;;;9.77;98.19;100099.56;5051424;28;20540;-55
2023/12/29 00:55:28;;;;;;;0.30;0.20;;;;;;;9.96;97.41;100099.03;5051555;28;20881;-56
2023/12/29 00:57:55;;;;;;;0.30;0.20;;;;;;;9.97;97.48;100103.44;5044046;28;20915;-55
2023/12/29 01:00:22;;;;;;;0.30;0.20;;;;;;;9.97;96.99;100109.59;5034667;28;20443;-55
2023/12/29 01:02:48;;;;;;;0.30;0.20;;;;;;;10.11;96.09;100106.56;5047609;28;20534;-56
2023/12/29 01:05:17;;;;;;;0.30;0.20;;;;;;;10.01;96.73;100110.41;5045864;28;20545;-56
2023/12/29 01:07:43;;;;;;;0.30;0.20;;;;;;;10.05;95.41;100109.41;5043485;28;20941;-56
2023/12/29 01:10:10;;;;;;;0.30;0.20;;;;;;;10.09;95.97;100103.06;5031827;28;20483;-56
2023/12/29 01:12:37;;;;;;;0.30;0.20;;;;;;;10.06;95.58;100109.34;5040112;28;20478;-56
2023/12/29 01:15:04;;;;;;;0.30;0.20;;;;;;;10.26;95.04;100106.13;5051112;28;20454;-56
2023/12/29 01:17:30;;;;;;;0.30;0.20;;;;;;;10.13;94.01;100101.19;5045774;28;20542;-56
2023/12/29 01:19:57;;;;;;;0.30;0.20;;;;;;;10.06;94.28;100093.41;5046918;28;20813;-53
2023/12/29 01:22:24;;;;;;;0.30;0.20;;;;;;;10.01;94.36;100092.69;5046017;28;20868;-56
2023/12/29 01:24:50;;;;;;;0.30;0.20;;;;;;;10.03;93.29;100082.03;5051251;28;20566;-56
2023/12/29 01:27:16;;;;;;;0.30;0.20;;;;;;;10.21;93.17;100077.94;5051602;28;20429;-55
2023/12/29 01:29:43;;;;;;;0.30;0.20;;;;;;;10.19;92.63;100082.44;5035513;28;20548;-56
2023/12/29 01:32:10;;;;;;;0.30;0.20;;;;;;;10.18;92.42;100089.53;5040739;28;20983;-55
2023/12/29 01:34:37;;;;;;;0.30;0.20;;;;;;;10.08;91.77;100094.25;5037011;28;20995;-56
2023/12/29 01:37:04;;;;;;;0.30;0.20;;;;;;;10.08;91.73;100091.59;5054836;28;20500;-56
2023/12/29 01:39:30;;;;;;;0.30;0.20;;;;;;;10.12;91.77;100089.69;5055854;28;20454;-56
2023/12/29 01:41:57;;;;;;;0.30;0.20;;;;;;;10.15;91.55;100092.28;5055514;28;20549;-56
2023/12/29 01:44:24;;;;;;;0.30;0.20;;;;;;;10.39;91.05;100096.84;5041801;28;20473;-56
2023/12/29 01:46:53;;;;;;;0.30;0.20;;;;;;;10.40;90.86;100092.41;5055249;28;20446;-56
2023/12/29 01:49:20;;;;;;;0.30;0.20;;;;;;;10.46;91.40;100099.34;5054959;28;21026;-56
2023/12/29 01:51:56;;;;;;;0.30;0.20;;;;;;;10.39;90.96;100088.88;5045075;28;20441;-56
2023/12/29 01:54:27;;;;;;;0.30;0.20;;;;;;;10.33;91.48;100094.41;5054153;28;20887;-56
2023/12/29 01:56:56;;;;;;;0.30;0.20;;;;;;;10.36;91.59;100093.44;5055151;28;20443;-56
2023/12/29 01:59:25;;;;;;;0.30;0.20;;;;;;;10.28;91.78;100085.72;5054784;28;20443;-53
2023/12/29 02:01:56;;;;;;;0.30;0.20;;;;;;;10.34;91.65;100079.34;5063433;28;20477;-53
2023/12/29 02:04:27;;;;;;;0.30;0.20;;;;;;;10.28;91.93;100075.09;5054980;28;20466;-53
2023/12/29 02:06:54;;;;;;;0.30;0.20;;;;;;;10.39;92.24;100072.06;5041355;28;20513;-53
2023/12/29 02:09:21;;;;;;;0.30;0.20;;;;;;;10.18;92.30;100067.41;5054560;28;20974;-53
2023/12/29 02:11:48;;;;;;;0.30;0.20;;;;;;;10.19;92.43;100063.84;5054739;28;20455;-55
2023/12/29 02:14:16;;;;;;;0.30;0.20;;;;;;;10.39;92.92;100067.63;5054635;28;20471;-56
2023/12/29 02:17:13;;;;;;;0.30;0.20;;;;;;;10.24;92.08;100064.59;5047688;28;20454;-56
2023/12/29 02:19:41;;;;;;;0.30;0.20;;;;;;;10.26;92.55;100068.94;5052317;28;21053;-56
2023/12/29 02:22:08;;;;;;;0.30;0.20;;;;;;;10.25;92.88;100061.00;5054712;28;20453;-56
2023/12/29 02:24:36;;;;;;;0.30;0.20;;;;;;;10.38;92.90;100065.91;5054553;28;20462;-56
2023/12/29 02:27:32;;;;;;;0.30;0.20;;;;;;;10.36;92.55;100054.44;5048050;28;20905;-56
2023/12/29 02:30:26;;;;;;;0.30;0.20;;;;;;;10.29;92.79;100058.22;5041479;28;20528;-56
2023/12/29 02:32:58;;;;;;;0.30;0.20;;;;;;;10.28;92.99;100055.59;5054047;28;20426;-56
2023/12/29 02:35:28;;;;;;;0.30;0.20;;;;;;;10.34;92.03;100077.53;5054331;28;20421;-56
2023/12/29 02:37:56;;;;;;;0.30;0.20;;;;;;;10.30;92.32;100059.97;5051296;28;20973;-56
2023/12/29 02:40:23;;;;;;;0.30;0.20;;;;;;;10.28;92.25;100061.81;5043941;28;20418;-55
2023/12/29 02:42:49;;;;;;;0.30;0.20;;;;;;;10.22;92.70;100069.09;5053963;28;20960;-56
2023/12/29 02:45:17;;;;;;;0.30;0.20;;;;;;;10.42;92.40;100060.50;5048061;28;20508;-56
2023/12/29 02:47:44;;;;;;;0.30;0.20;;;;;;;10.32;92.30;100074.06;5050362;28;20875;-56
2023/12/29 02:50:11;;;;;;;0.30;0.20;;;;;;;10.38;92.00;100067.69;5044816;28;20518;-56
2023/12/29 02:52:37;;;;;;;0.30;0.20;;;;;;;10.52;92.28;100065.47;5053389;28;20500;-56
2023/12/29 02:55:04;;;;;;;0.30;0.20;;;;;;;10.53;92.14;100068.97;5054130;28;20558;-56
2023/12/29 02:57:31;;;;;;;0.30;0.20;;;;;;;10.59;91.34;100076.78;5040838;28;20450;-53
2023/12/29 02:59:57;;;;;;;0.30;0.20;;;;;;;10.55;91.28;100088.41;5065055;28;20454;-54
2023/12/29 03:02:24;;;;;;;0.30;0.20;;;;;;;10.42;92.09;100085.28;5055011;28;20466;-55
2023/12/29 03:04:51;;;;;;;0.30;0.20;;;;;;;10.32;92.06;100089.16;5053973;28;20555;-56
2023/12/29 03:07:17;;;;;;;0.30;0.20;;;;;;;10.39;91.66;100086.22;5040993;28;20538;-55
2023/12/29 03:09:44;;;;;;;0.30;0.20;;;;;;;10.56;90.84;100066.25;5053500;28;20490;-55
2023/12/29 03:12:11;;;;;;;0.30;0.20;;;;;;;10.64;90.91;100066.84;5040038;28;20546;-55
2023/12/29 03:14:37;;;;;;;0.30;0.20;;;;;;;10.35;90.89;100065.13;5053395;28;20991;-55
2023/12/29 03:17:03;;;;;;;0.30;0.20;;;;;;;10.39;91.31;100056.13;5048694;28;20930;-55
2023/12/29 03:19:30;;;;;;;0.30;0.20;;;;;;;10.44;90.85;100056.88;5044870;28;20874;-55
2023/12/29 03:21:56;;;;;;;0.30;0.20;;;;;;;10.36;90.93;100048.28;5053315;28;20966;-55
2023/12/29 03:24:23;;;;;;;0.30;0.20;;;;;;;10.33;91.71;100067.84;5041957;28;20977;-55
2023/12/29 03:26:49;;;;;;;0.30;0.20;;;;;;;10.29;91.36;100063.53;5051555;28;20455;-55
2023/12/29 03:29:16;;;;;;;0.30;0.20;;;;;;;10.11;91.99;100058.75;5053244;28;20495;-55
2023/12/29 03:31:42;;;;;;;0.30;0.20;;;;;;;10.13;92.44;100054.25;5039494;28;20999;-55
2023/12/29 03:34:09;;;;;;;0.30;0.20;;;;;;;10.21;92.53;100056.69;5053220;28;20467;-55
2023/12/29 03:36:35;;;;;;;0.30;0.20;;;;;;;10.14;92.04;100060.44;5053190;28;20454;-55
2023/12/29 03:39:02;;;;;;;0.30;0.20;;;;;;;10.16;92.42;100048.88;5041172;28;20430;-55
2023/12/29 03:41:29;;;;;;;0.30;0.20;;;;;;;10.20;92.44;100047.84;5051535;28;20534;-55
2023/12/29 03:43:56;;;;;;;0.30;0.20;;;;;;;10.13;92.39;100037.44;5052802;28;20574;-55
2023/12/29 03:46:23;;;;;;;0.30;0.20;;;;;;;10.20;92.35;100026.59;5039272;28;21026;-55
2023/12/29 03:48:49;;;;;;;0.30;0.20;;;;;;;10.17;92.94;100037.31;5052965;28;20477;-55
2023/12/29 03:51:17;;;;;;;0.30;0.20;;;;;;;10.10;92.68;100027.78;5051996;28;20491;-55
2023/12/29 03:53:44;;;;;;;0.30;0.20;;;;;;;10.13;93.39;100022.38;5052712;28;20557;-55
2023/12/29 03:56:18;;;;;;;0.30;0.20;;;;;;;10.32;93.10;100022.72;5039446;28;20446;-55
2023/12/29 03:58:45;;;;;;;0.30;0.20;;;;;;;10.29;92.53;100020.19;5050914;28;20605;-55
2023/12/29 04:01:13;;;;;;;0.30;0.20;;;;;;;10.17;93.61;100023.19;5052651;28;20497;-55
2023/12/29 04:03:41;;;;;;;0.30;0.20;;;;;;;10.16;93.39;100017.00;5050611;28;20470;-55
2023/12/29 04:06:08;;;;;;;0.30;0.20;;;;;;;10.35;92.62;100023.50;5041406;28;20447;-55
2023/12/29 04:08:36;;;;;;;0.30;0.20;;;;;;;10.28;92.95;100021.97;5052381;28;20542;-55
2023/12/29 04:11:03;;;;;;;0.30;0.20;;;;;;;10.22;92.91;100023.94;5043585;28;20907;-55
2023/12/29 04:13:30;;;;;;;0.30;0.20;;;;;;;10.23;93.44;100030.97;5051483;28;21059;-55
2023/12/29 04:15:57;;;;;;;0.30;0.20;;;;;;;10.11;93.75;100024.22;5052381;28;20546;-55
2023/12/29 04:18:24;;;;;;;0.30;0.20;;;;;;;10.09;94.09;100026.06;5038885;28;20455;-55
2023/12/29 04:20:51;;;;;;;0.30;0.20;;;;;;;10.09;93.88;100028.72;5052247;28;20497;-55
2023/12/29 04:23:17;;;;;;;0.30;0.20;;;;;;;10.20;94.07;100033.69;5048816;28;20551;-55
2023/12/29 04:25:44;;;;;;;0.30;0.20;;;;;;;10.01;94.08;100033.41;5041998;28;20465;-55
2023/12/29 04:28:10;;;;;;;0.30;0.20;;;;;;;9.98;94.67;100037.00;5038932;28;20474;-55
2023/12/29 04:30:37;;;;;;;0.30;0.20;;;;;;;10.02;94.04;100035.16;5052123;28;20536;-55
2023/12/29 04:33:04;;;;;;;0.30;0.20;;;;;;;10.15;93.55;100032.97;5048393;28;20467;-55
2023/12/29 04:35:30;;;;;;;0.30;0.20;;;;;;;9.95;93.75;100038.88;5041414;28;20478;-55
2023/12/29 04:37:57;;;;;;;0.30;0.20;;;;;;;9.89;94.31;100033.78;5038412;28;20442;-55
2023/12/29 04:40:23;;;;;;;0.30;0.20;;;;;;;9.91;94.22;100037.25;5052173;28;20537;-54
2023/12/29 04:42:50;;;;;;;0.30;0.20;;;;;;;9.83;93.82;100040.13;5051969;28;20455;-55
2023/12/29 04:45:16;;;;;;;0.30;0.20;;;;;;;9.97;93.39;100051.19;5041658;28;20471;-55
2023/12/29 04:47:43;;;;;;;0.30;0.20;;;;;;;10.05;93.65;100045.66;5048620;28;20530;-55
2023/12/29 04:50:09;;;;;;;0.30;0.20;;;;;;;10.09;93.23;100037.56;5041256;28;20494;-55
2023/12/29 04:52:36;;;;;;;0.30;0.20;;;;;;;10.23;92.78;100029.19;5048552;28;20971;-55
2023/12/29 04:55:03;;;;;;;0.30;0.20;;;;;;;10.05;92.90;100029.72;5051583;28;20957;-55
2023/12/29 04:57:29;;;;;;;0.30;0.20;;;;;;;10.05;92.56;100019.13;5051642;28;20451;-55
2023/12/29 04:59:56;;;;;;;0.30;0.20;;;;;;;10.19;92.27;100031.97;5051559;28;20458;-56
2023/12/29 05:02:22;;;;;;;0.30;0.20;;;;;;;10.39;91.65;100032.22;5051287;28;20462;-55
2023/12/29 05:04:49;;;;;;;0.30;0.20;;;;;;;10.04;92.11;100036.84;5040879;28;20474;-55
2023/12/29 05:07:15;;;;;;;0.30;0.20;;;;;;;10.03;91.76;100026.25;5048782;28;20960;-55
2023/12/29 05:09:42;;;;;;;0.30;0.20;;;;;;;10.24;91.91;100025.63;5051021;28;20490;-55
2023/12/29 05:12:08;;;;;;;0.30;0.20;;;;;;;10.09;92.29;100031.38;5038251;28;20537;-55
2023/12/29 05:14:35;;;;;;;0.30;0.20;;;;;;;10.09;91.86;100023.41;5051422;28;20498;-55
2023/12/29 05:17:01;;;;;;;0.30;0.20;;;;;;;10.28;91.23;100027.28;5046947;28;20546;-55
2023/12/29 05:19:27;;;;;;;0.30;0.20;;;;;;;10.29;91.66;100014.88;5042490;28;20823;-55
2023/12/29 05:21:54;;;;;;;0.30;0.20;;;;;;;10.26;91.94;100012.28;5051337;28;20956;-55
2023/12/29 05:24:21;;;;;;;0.30;0.20;;;;;;;10.32;91.89;100010.31;5040588;28;20491;-56
2023/12/29 05:26:47;;;;;;;0.30;0.20;;;;;;;10.31;91.81;100010.38;5049094;28;20451;-55
2023/12/29 05:29:14;;;;;;;0.30;0.20;;;;;;;10.38;91.62;100020.72;5051185;28;20940;-55
2023/12/29 05:31:40;;;;;;;0.30;0.20;;;;;;;10.40;91.49;100018.00;5046150;28;20836;-55
2023/12/29 05:34:07;;;;;;;0.30;0.20;;;;;;;10.39;91.66;100009.19;5042603;28;20897;-53
2023/12/29 05:36:37;;;;;;;0.30;0.20;;;;;;;10.42;91.81;100012.69;5051372;28;20530;-53
2023/12/29 05:39:04;;;;;;;0.30;0.20;;;;;;;10.36;92.35;100008.41;5046805;28;20474;-53
2023/12/29 05:41:30;;;;;;;0.30;0.20;;;;;;;10.47;92.37;100008.06;5050781;28;20446;-53
2023/12/29 05:43:58;;;;;;;0.30;0.20;;;;;;;10.56;92.08;99998.03;5051319;28;20469;-52
2023/12/29 05:46:24;;;;;;;0.30;0.20;;;;;;;10.50;92.48;100010.63;5037735;28;20459;-55
2023/12/29 05:48:52;;;;;;;0.30;0.20;;;;;;;10.67;91.66;100011.78;5051150;28;20454;-55
2023/12/29 05:51:19;;;;;;;0.30;0.20;;;;;;;10.65;92.07;100010.97;5049920;28;20576;-55
2023/12/29 05:53:45;;;;;;;0.30;0.20;;;;;;;10.71;92.62;100017.91;5050827;28;20486;-55
2023/12/29 05:56:14;;;;;;;0.30;0.20;;;;;;;10.66;92.48;100010.06;5050154;28;20458;-55
2023/12/29 05:58:42;;;;;;;0.30;0.20;;;;;;;10.60;92.70;100006.75;5047605;28;20502;-55
2023/12/29 06:01:09;;;;;;;0.30;0.20;;;;;;;10.78;92.26;100002.59;5051051;28;20443;-52
2023/12/29 06:03:36;;;;;;;0.30;0.20;;;;;;;10.78;92.80;99998.16;5050060;28;20828;-53
2023/12/29 06:06:03;;;;;;;0.30;0.20;;;;;;;10.86;92.20;99993.44;5038889;28;20497;-53
2023/12/29 06:08:29;;;;;;;0.30;0.20;;;;;;;10.78;92.80;99989.31;5050810;28;21111;-55
2023/12/29 06:10:56;;;;;;;0.30;0.20;;;;;;;10.71;92.66;99990.44;5045300;28;20478;-55
2023/12/29 06:13:23;;;;;;;0.30;0.20;;;;;;;10.78;93.49;99989.31;5051004;28;20868;-55
2023/12/29 06:15:49;;;;;;;0.30;0.20;;;;;;;10.87;92.96;99983.69;5046770;28;20987;-52
2023/12/29 06:18:16;;;;;;;0.30;0.20;;;;;;;10.89;93.17;99990.69;5050634;28;20446;-55
2023/12/29 06:20:43;;;;;;;0.30;0.20;;;;;;;10.93;92.83;99994.09;5051468;28;20443;-54
2023/12/29 06:23:09;;;;;;;0.30;0.20;;;;;;;11.04;92.63;99994.59;5051923;28;20501;-55
2023/12/29 06:25:35;;;;;;;0.30;0.20;;;;;;;10.92;93.12;99993.22;5042892;28;20550;-55
2023/12/29 06:28:06;;;;;;;0.30;0.20;;;;;;;11.06;92.56;99995.41;5054529;28;20461;-55
2023/12/29 06:30:33;;;;;;;0.30;0.20;;;;;;;10.93;93.41;99996.75;5054365;28;20514;-55
2023/12/29 06:33:00;;;;;;;0.30;0.20;;;;;;;10.96;92.95;99999.28;5046432;28;20478;-55
2023/12/29 06:35:27;;;;;;;0.30;0.20;;;;;;;11.04;93.66;99999.91;5054269;28;20564;-55
2023/12/29 06:37:53;;;;;;;0.30;0.20;;;;;;;11.10;93.01;100002.38;5052266;28;20493;-56
2023/12/29 06:40:20;;;;;;;0.30;0.20;;;;;;;11.07;92.88;99997.13;5053396;28;20450;-55
2023/12/29 06:42:46;;;;;;;0.30;0.20;;;;;;;11.17;92.33;99992.38;5050835;28;20935;-52
2023/12/29 06:45:13;;;;;;;0.30;0.20;;;;;;;11.21;93.08;99983.34;5046806;28;21017;-52
2023/12/29 06:47:39;;;;;;;0.30;0.20;;;;;;;11.17;92.53;99987.91;5054222;28;20451;-55
2023/12/29 06:50:07;;;;;;;0.30;0.20;;;;;;;11.03;93.33;99992.00;5044380;28;21098;-55
2023/12/29 06:52:34;;;;;;;0.30;0.20;;;;;;;11.05;92.62;99988.34;5053493;28;20450;-55
2023/12/29 06:55:01;;;;;;;0.30;0.20;;;;;;;11.04;93.54;99985.75;5053694;28;20983;-55
2023/12/29 06:57:28;;;;;;;0.30;0.20;;;;;;;11.06;93.47;99986.56;5049902;28;20958;-54
2023/12/29 06:59:54;;;;;;;0.30;0.20;;;;;;;11.08;93.68;99982.91;5048599;28;20451;-54
2023/12/29 07:02:21;;;;;;;0.30;0.20;;;;;;;11.16;93.39;99985.31;5051673;28;20545;-54
2023/12/29 07:04:48;;;;;;;0.30;0.20;;;;;;;11.15;93.50;99983.56;5042948;28;20476;-54
2023/12/29 07:07:15;;;;;;;0.30;0.20;;;;;;;11.23;92.99;99984.16;5051580;28;20429;-53
2023/12/29 07:09:41;;;;;;;0.30;0.20;;;;;;;11.14;93.18;99985.38;5042195;28;20462;-53
2023/12/29 07:12:08;;;;;;;0.30;0.20;;;;;;;11.17;93.22;99987.91;5051634;28;20565;-54
2023/12/29 07:14:35;;;;;;;0.30;0.20;;;;;;;11.12;93.67;99991.69;5053366;28;21007;-53
2023/12/29 07:17:02;;;;;;;0.30;0.20;;;;;;;11.22;93.28;99999.25;5035814;28;20475;-53
2023/12/29 07:19:36;;;;;;;0.30;0.20;;;;;;;11.21;93.04;99997.50;5045112;28;20457;-53
2023/12/29 07:22:07;;;;;;;0.30;0.20;;;;;;;11.17;93.36;99993.22;5053576;28;20447;-53
2023/12/29 07:24:35;;;;;;;0.30;0.20;;;;;;;11.11;93.41;99993.47;5040371;28;20550;-52
2023/12/29 07:27:03;;;;;;;0.30;0.20;;;;;;;11.16;92.62;99995.94;5040431;28;20509;-53
2023/12/29 07:29:30;;;;;;;0.30;0.20;;;;;;;11.23;92.44;99992.13;5049193;28;20451;-53
2023/12/29 07:31:56;;;;;;;0.30;0.20;;;;;;;11.28;92.38;99995.50;5039775;28;20483;-53
2023/12/29 07:34:23;;;;;;;0.30;0.20;;;;;;;11.11;92.82;99998.78;5047561;28;20502;-53
2023/12/29 07:36:50;;;;;;;0.30;0.20;;;;;;;11.27;92.70;100005.28;5046756;28;20459;-53
2023/12/29 07:39:17;;;;;;;0.30;0.20;;;;;;;11.30;91.91;100004.31;5045914;28;20498;-53
2023/12/29 07:41:44;;;;;;;0.30;0.20;;;;;;;11.26;91.90;100008.00;5041932;28;20916;-53
2023/12/29 07:44:11;;;;;;;0.30;0.20;;;;;;;11.15;92.38;100010.19;5044914;28;20445;-53
2023/12/29 07:46:40;;;;;;;0.30;0.20;;;;;;;11.28;92.31;100012.34;5049940;28;20862;-54
2023/12/29 07:49:06;;;;;;;0.30;0.20;;;;;;;11.36;91.49;100025.34;5042401;28;20828;-53
2023/12/29 07:51:33;;;;;;;0.30;0.20;;;;;;;11.52;90.89;100015.91;5043413;28;20794;-50
2023/12/29 07:54:00;;;;;;;0.30;0.20;;;;;;;11.48;90.89;100011.59;5043183;28;20562;-51
2023/12/29 07:56:26;;;;;;;0.30;0.20;;;;;;;11.41;91.13;100012.78;5042290;28;20542;-53
2023/12/29 07:58:53;;;;;;;0.30;0.20;;;;;;;11.45;90.63;100024.16;5046608;28;20530;-50
2023/12/29 08:01:19;;;;;;;0.30;0.20;;;;;;;11.40;90.17;100019.03;5044550;28;20458;-51
2023/12/29 08:03:46;;;;;;;0.30;0.20;;;;;;;11.51;90.58;100018.59;5046089;28;20463;-51
2023/12/29 08:06:13;;;;;;;0.30;0.20;;;;;;;11.65;89.97;100018.09;5042684;28;20444;-50
2023/12/29 08:08:40;;;;;;;0.30;0.20;;;;;;;11.70;90.43;100029.47;5042090;28;20447;-50
2023/12/29 08:11:13;;;;;;;0.30;0.20;;;;;;;11.60;89.39;100018.28;5044260;28;20511;-51
2023/12/29 08:13:40;;;;;;;0.30;0.20;;;;;;;11.57;89.97;100027.25;5047416;28;20976;-51
2023/12/29 08:16:08;;;;;;;0.30;0.20;;;;;;;11.40;91.04;100024.34;5043780;28;20443;-51
2023/12/29 08:18:35;;;;;;;0.30;0.20;;;;;;;11.42;90.83;100025.16;5052306;28;20988;-50
2023/12/29 08:21:02;;;;;;;0.30;0.20;;;;;;;11.51;90.85;100015.94;5043814;28;20435;-50
2023/12/29 08:23:28;;;;;;;0.30;0.20;;;;;;;11.49;90.21;100018.66;5044494;28;20510;-51
2023/12/29 08:25:58;;;;;;;0.30;0.20;;;;;;;11.46;90.74;100020.59;5042949;28;21035;-51
2023/12/29 08:28:24;;;;;;;0.30;0.20;;;;;;;11.48;90.48;100016.94;5039763;28;20472;-52
2023/12/29 08:30:51;;;;;;;0.30;0.20;;;;;;;11.49;90.38;100016.00;5046995;28;20483;-52
2023/12/29 08:33:18;;;;;;;0.30;0.20;;;;;;;11.51;89.91;100019.50;5043539;28;20523;-51
2023/12/29 08:35:45;;;;;;;0.30;0.20;;;;;;;11.57;89.97;100021.94;5043061;28;20448;-50
2023/12/29 08:38:12;;;;;;;0.30;0.20;;;;;;;11.60;89.85;100014.75;5043129;28;20933;-50
2023/12/29 08:40:38;;;;;;;0.30;0.20;;;;;;;11.53;90.06;100012.31;5038603;28;20447;-51
2023/12/29 08:43:05;;;;;;;0.30;0.20;;;;;;;11.70;90.04;100025.00;5046422;28;20550;-51
2023/12/29 08:45:31;;;;;;;0.30;0.20;;;;;;;11.68;90.02;100023.34;5041083;28;20414;-51
2023/12/29 08:47:58;;;;;;;0.30;0.20;;;;;;;11.75;89.53;100020.38;5040283;28;21048;-51
2023/12/29 08:50:24;;;;;;;0.30;0.20;;;;;;;11.61;89.63;100008.50;5041803;28;20441;-51
2023/12/29 08:52:51;;;;;;;0.30;0.20;;;;;;;11.75;89.66;100006.19;5043904;28;20456;-52
2023/12/29 08:55:17;;;;;;;0.30;0.20;;;;;;;11.58;90.09;100012.16;5037237;28;20497;-51
2023/12/29 08:57:44;;;;;;;0.30;0.20;;;;;;;11.82;89.80;100013.06;5045097;28;20475;-52
2023/12/29 09:00:11;;;;;;;0.30;0.20;;;;;;;11.69;90.38;100012.63;5050439;28;20450;-51
2023/12/29 09:02:38;;;;;;;0.30;0.20;;;;;;;11.70;90.81;100008.16;5047644;28;20455;-51
2023/12/29 09:05:04;;;;;;;0.30;0.20;;;;;;;11.76;90.07;100018.56;5041343;28;20541;-52
2023/12/29 09:07:31;;;;;;;0.30;0.20;;;;;;;11.86;90.10;100022.66;5043303;28;21040;-50
2023/12/29 09:09:59;;;;;;;0.30;0.20;;;;;;;11.66;90.82;100017.19;5045786;28;20447;-54
2023/12/29 09:12:25;;;;;;;0.30;0.20;;;;;;;11.69;90.94;100019.75;5051622;28;20561;-55
2023/12/29 09:14:52;;;;;;;0.30;0.20;;;;;;;11.77;91.12;100017.63;5042552;28;20472;-55
2023/12/29 09:17:18;;;;;;;0.30;0.20;;;;;;;11.67;91.38;100022.47;5041828;28;20508;-55
2023/12/29 09:19:45;;;;;;;0.30;0.20;;;;;;;11.82;91.81;100013.06;5040534;28;20451;-55
2023/12/29 09:22:17;;;;;;;0.30;0.20;;;;;;;11.73;91.58;100010.69;5051728;28;20808;-55
2023/12/29 09:24:43;;;;;;;0.30;0.20;;;;;;;11.99;90.91;100023.06;5038370;28;20467;-55
2023/12/29 09:27:10;;;;;;;0.30;0.20;;;;;;;11.69;91.63;100017.06;5051306;28;20459;-55
2023/12/29 09:29:37;;;;;;;0.30;0.20;;;;;;;11.84;91.34;100014.72;5051328;28;20821;-55
2023/12/29 09:32:04;;;;;;;0.30;0.20;;;;;;;11.80;92.09;100018.44;5051266;28;20464;-55
2023/12/29 09:34:30;;;;;;;0.30;0.20;;;;;;;11.92;91.61;100019.75;5049429;28;20557;-55
2023/12/29 09:36:57;;;;;;;0.30;0.20;;;;;;;11.80;91.45;100017.59;5031512;28;21029;-55
2023/12/29 09:39:23;;;;;;;0.30;0.20;;;;;;;11.90;91.85;100018.94;5033741;28;20472;-55
2023/12/29 09:41:52;;;;;;;0.30;0.20;;;;;;;12.06;91.95;100022.78;5051303;28;20443;-53
2023/12/29 09:44:20;;;;;;;0.30;0.20;;;;;;;12.01;91.31;100031.84;5048376;28;20497;-53
2023/12/29 09:46:53;;;;;;;0.30;0.20;;;;;;;12.05;91.79;100028.13;5041503;28;20541;-53
2023/12/29 09:49:20;;;;;;;0.30;0.20;;;;;;;12.16;91.72;100028.59;5050081;28;20532;-52
2023/12/29 09:51:48;;;;;;;0.30;0.20;;;;;;;12.04;91.21;100027.28;5050941;28;21003;-52
2023/12/29 09:54:15;;;;;;;0.30;0.20;;;;;;;11.92;91.54;100029.53;5050631;28;20473;-53
2023/12/29 09:56:42;;;;;;;0.40;0.30;;;;;;;11.99;91.22;100037.25;5043815;28;20447;-55
2023/12/29 09:59:10;;;;;;;0.30;0.20;;;;;;;12.09;91.01;100043.97;5052635;28;20465;-55
2023/12/29 10:01:37;;;;;;;0.30;0.20;;;;;;;12.18;91.41;100047.19;5055140;28;20501;-52
2023/12/29 10:04:04;;;;;;;0.30;0.20;;;;;;;12.20;91.27;100045.31;5054840;28;20478;-53
2023/12/29 10:06:36;;;;;;;0.30;0.20;;;;;;;12.16;91.60;100045.44;5054867;28;20829;-53
2023/12/29 10:09:05;;;;;;;0.30;0.20;;;;;;;12.00;91.38;100043.44;5054884;28;20450;-52
2023/12/29 10:11:35;;;;;;;0.30;0.20;;;;;;;12.09;91.38;100043.97;5041710;28;20610;-52
2023/12/29 10:14:19;;;;;;;0.30;0.20;;;;;;;12.13;91.18;100047.38;5040501;28;20487;-54
2023/12/29 10:16:54;;;;;;;0.30;0.20;;;;;;;12.07;91.50;100040.50;5051092;28;20461;-55
2023/12/29 10:19:30;;;;;;;0.30;0.20;;;;;;;12.23;91.26;100046.09;5043829;28;20447;-52
2023/12/29 10:22:04;;;;;;;0.30;0.20;;;;;;;12.11;91.15;100047.44;5050053;28;20439;-53
2023/12/29 10:24:32;;;;;;;0.30;0.20;;;;;;;12.08;91.47;100044.91;5041272;28;20475;-52
2023/12/29 10:26:58;;;;;;;0.30;0.20;;;;;;;12.09;91.09;100043.97;5054657;28;20537;-52
2023/12/29 10:29:27;;;;;;;0.30;0.20;;;;;;;12.13;90.87;100034.03;5053306;28;20486;-52
2023/12/29 10:31:53;;;;;;;0.30;0.20;;;;;;;12.07;90.65;100036.97;5046807;28;20578;-52
2023/12/29 10:34:30;;;;;;;0.30;0.20;;;;;;;12.25;90.77;100027.38;5040247;28;20475;-52
2023/12/29 10:37:06;;;;;;;0.30;0.20;;;;;;;12.11;90.34;100046.56;5050726;28;20435;-54
2023/12/29 10:39:33;;;;;;;0.30;0.20;;;;;;;12.06;90.01;100038.75;5043682;28;20799;-55
2023/12/29 10:42:08;;;;;;;0.30;0.20;;;;;;;12.21;89.50;100044.41;5054169;28;20436;-55
2023/12/29 10:44:36;;;;;;;0.30;0.20;;;;;;;12.26;88.61;100037.97;5053910;28;20975;-55
2023/12/29 10:47:10;;;;;;;0.30;0.20;;;;;;;12.32;88.23;100035.03;5041525;28;20466;-54
2023/12/29 10:49:37;;;;;;;0.30;0.20;;;;;;;12.39;88.53;100028.56;5051771;28;20459;-54
2023/12/29 10:52:14;;;;;;;0.30;0.20;;;;;;;12.38;87.35;100032.16;5047231;28;20494;-55
2023/12/29 10:54:42;;;;;;;0.30;0.20;;;;;;;12.35;87.35;100028.75;5039792;28;20568;-54
2023/12/29 10:57:13;;;;;;;0.30;0.20;;;;;;;12.29;86.90;100021.84;5050726;28;20837;-55
2023/12/29 10:59:40;;;;;;;0.30;0.20;;;;;;;12.42;87.20;100022.22;5044501;28;20521;-55
2023/12/29 11:02:08;;;;;;;0.30;0.20;;;;;;;12.37;87.79;100022.41;5051877;28;20457;-52
2023/12/29 11:04:35;;;;;;;0.30;0.20;;;;;;;12.58;87.12;100023.34;5042370;28;20474;-52
2023/12/29 11:07:02;;;;;;;0.30;0.20;;;;;;;12.48;87.48;100022.00;5047165;28;20446;-52
2023/12/29 11:09:35;;;;;;;0.30;0.20;;;;;;;12.60;87.06;100018.78;5052873;28;20462;-52
2023/12/29 11:12:04;;;;;;;0.30;0.20;;;;;;;12.59;87.07;100022.41;5040018;28;20569;-52
2023/12/29 11:14:32;;;;;;;0.30;0.20;;;;;;;12.60;87.79;100021.47;5053984;28;20892;-50
2023/12/29 11:17:00;;;;;;;0.30;0.20;;;;;;;12.34;87.88;100024.34;5049852;28;20451;-50
2023/12/29 11:19:27;;;;;;;0.30;0.20;;;;;;;12.28;88.07;100024.56;5044617;28;20451;-51
2023/12/29 11:21:55;;;;;;;0.30;0.20;;;;;;;12.27;88.58;100030.84;5053449;28;20450;-50
2023/12/29 11:24:23;;;;;;;0.30;0.20;;;;;;;12.24;88.72;100033.63;5041907;28;20476;-53
2023/12/29 11:27:06;;;;;;;0.30;0.20;;;;;;;12.48;88.37;100031.78;5040528;28;20455;-53
2023/12/29 11:29:34;;;;;;;0.30;0.20;;;;;;;12.48;88.63;100034.47;5039427;28;20451;-54